Time;durP1;ratioP1;P1;durP2;ratioP2;P2;SDS_P1;SDS_P2;PMS_P1;PMS_P2;Temp;Humidity;BMP_temperature;BMP_pressure;BME280_temperature;BME280_humidity;BME280_pressure;Samples;Min_cycle;Max_cycle;Signal;HPM_P1;HPM_P2
2021/08/29 00:02:23;;;;;;;7.63;5.57;;;16.50;99.90;;;;;;5076960;28;20458;-43
2021/08/29 00:04:49;;;;;;;6.90;6.00;;;16.60;99.90;;;;;;5077263;28;20431;-47
2021/08/29 00:07:16;;;;;;;5.80;5.20;;;16.60;99.90;;;;;;5077477;28;20470;-49
2021/08/29 00:09:43;;;;;;;6.00;4.93;;;16.60;99.90;;;;;;5077583;28;20451;-47
2021/08/29 00:12:11;;;;;;;4.90;4.00;;;16.60;99.90;;;;;;5077862;28;20443;-50
2021/08/29 00:14:38;;;;;;;4.77;4.20;;;16.50;99.90;;;;;;5077899;28;20471;-48
2021/08/29 00:17:05;;;;;;;5.50;4.70;;;16.50;99.90;;;;;;5078318;28;20454;-45
2021/08/29 00:19:31;;;;;;;8.13;5.20;;;16.60;99.90;;;;;;5078034;28;20427;-45
2021/08/29 00:21:58;;;;;;;6.70;6.00;;;16.60;99.90;;;;;;5077994;28;20444;-49
2021/08/29 00:24:24;;;;;;;5.63;4.80;;;16.60;99.90;;;;;;5077403;28;20435;-48
2021/08/29 00:26:51;;;;;;;5.30;4.77;;;16.60;99.90;;;;;;5077224;28;20432;-44
2021/08/29 00:29:19;;;;;;;6.27;4.60;;;16.60;99.90;;;;;;5076788;28;20471;-48
2021/08/29 00:31:46;;;;;;;7.00;6.00;;;16.60;99.90;;;;;;5077198;28;20446;-48
2021/08/29 00:34:12;;;;;;;5.33;4.83;;;16.60;99.90;;;;;;5076935;28;20477;-50
2021/08/29 00:36:40;;;;;;;6.30;5.40;;;16.60;99.90;;;;;;5077318;28;20436;-49
2021/08/29 00:39:07;;;;;;;5.53;4.57;;;16.60;99.90;;;;;;5077119;28;20508;-51
2021/08/29 00:41:33;;;;;;;6.60;5.27;;;16.60;99.90;;;;;;5077376;28;20432;-46
2021/08/29 00:44:04;;;;;;;8.17;5.20;;;16.60;99.90;;;;;;5077718;28;20453;-47
2021/08/29 00:46:35;;;;;;;5.90;5.30;;;16.60;99.90;;;;;;5076939;28;20419;-50
2021/08/29 00:49:01;;;;;;;7.93;5.50;;;16.60;99.90;;;;;;5076827;28;20470;-49
2021/08/29 00:51:28;;;;;;;6.60;5.10;;;16.60;99.90;;;;;;5079333;28;20439;-48
2021/08/29 00:53:56;;;;;;;6.77;4.97;;;16.60;99.90;;;;;;5079870;28;20457;-50
2021/08/29 00:56:24;;;;;;;7.17;5.60;;;16.60;99.90;;;;;;5080540;28;20446;-44
2021/08/29 00:58:52;;;;;;;7.30;5.80;;;16.70;99.90;;;;;;5080776;28;20453;-47
2021/08/29 01:01:23;;;;;;;8.13;6.03;;;16.70;99.90;;;;;;5081297;28;20423;-44
2021/08/29 01:03:56;;;;;;;5.87;4.63;;;16.70;99.90;;;;;;5080841;28;20465;-49
2021/08/29 01:06:29;;;;;;;8.53;6.37;;;16.70;99.90;;;;;;5079784;28;20428;-49
2021/08/29 01:09:00;;;;;;;5.83;5.20;;;16.70;99.90;;;;;;5080197;28;20427;-42
2021/08/29 01:11:28;;;;;;;8.10;5.60;;;16.70;99.90;;;;;;5080049;28;20427;-42
2021/08/29 01:14:00;;;;;;;8.53;5.93;;;16.70;99.90;;;;;;5080368;28;20423;-43
2021/08/29 01:16:31;;;;;;;6.50;5.30;;;16.70;99.90;;;;;;5079876;28;20423;-49
2021/08/29 01:19:01;;;;;;;6.20;5.60;;;16.70;99.90;;;;;;5079933;28;20420;-50
2021/08/29 01:21:30;;;;;;;6.13;4.77;;;16.70;99.90;;;;;;5079747;28;20432;-50
2021/08/29 01:24:00;;;;;;;8.03;5.27;;;16.70;99.90;;;;;;5080062;28;20432;-49
2021/08/29 01:26:33;;;;;;;10.43;4.57;;;16.70;99.90;;;;;;5080303;28;20427;-49
2021/08/29 01:29:06;;;;;;;7.63;5.40;;;16.70;99.90;;;;;;5079703;28;20952;-50
2021/08/29 01:31:36;;;;;;;7.10;5.60;;;16.60;99.90;;;;;;5079972;28;20424;-50
2021/08/29 01:34:07;;;;;;;5.97;4.83;;;16.60;99.90;;;;;;5079479;28;20439;-50
2021/08/29 01:36:35;;;;;;;5.33;4.27;;;16.60;99.90;;;;;;5079645;28;20419;-49
2021/08/29 01:39:03;;;;;;;6.40;5.17;;;16.60;99.90;;;;;;5079473;28;20482;-47
2021/08/29 01:41:31;;;;;;;5.07;4.57;;;16.60;99.90;;;;;;5079452;28;20445;-49
2021/08/29 01:43:58;;;;;;;5.37;4.87;;;16.60;99.90;;;;;;5079553;28;20470;-45
2021/08/29 01:46:26;;;;;;;5.87;4.57;;;16.60;99.90;;;;;;5079440;28;20419;-49
2021/08/29 01:48:53;;;;;;;6.10;5.20;;;16.60;99.90;;;;;;5079186;28;20458;-43
2021/08/29 01:51:20;;;;;;;6.27;5.03;;;16.70;99.90;;;;;;5079508;28;20493;-50
2021/08/29 01:53:46;;;;;;;5.83;4.27;;;16.60;99.90;;;;;;5078737;28;20470;-49
2021/08/29 01:56:13;;;;;;;6.77;3.97;;;16.60;99.90;;;;;;5079361;28;21001;-49
2021/08/29 01:58:40;;;;;;;5.67;5.10;;;16.60;99.90;;;;;;5079546;28;20447;-48
2021/08/29 02:01:10;;;;;;;6.40;4.30;;;16.60;99.90;;;;;;5078808;28;20447;-50
2021/08/29 02:03:41;;;;;;;8.20;4.50;;;16.60;99.90;;;;;;5078996;28;20504;-47
2021/08/29 02:06:12;;;;;;;4.63;4.20;;;16.60;99.90;;;;;;5079319;28;20428;-48
2021/08/29 02:08:56;;;;;;;5.17;4.60;;;16.60;99.90;;;;;;5078614;28;20446;-44
2021/08/29 02:11:23;;;;;;;5.17;4.27;;;16.60;99.90;;;;;;5078933;28;20415;-47
2021/08/29 02:13:53;;;;;;;6.30;4.53;;;16.60;99.90;;;;;;5078865;28;20443;-48
2021/08/29 02:16:22;;;;;;;5.10;4.20;;;16.60;99.90;;;;;;5078916;28;20498;-45
2021/08/29 02:18:54;;;;;;;5.73;4.47;;;16.60;99.90;;;;;;5078858;28;20419;-49
2021/08/29 02:21:25;;;;;;;5.03;4.53;;;16.60;99.90;;;;;;5079128;28;20438;-45
2021/08/29 02:23:52;;;;;;;5.33;4.83;;;16.60;99.90;;;;;;5078831;28;20412;-48
2021/08/29 02:26:19;;;;;;;5.40;4.37;;;16.60;99.90;;;;;;5078564;28;20466;-50
2021/08/29 02:28:46;;;;;;;5.83;5.13;;;16.60;99.90;;;;;;5078185;28;20513;-51
2021/08/29 02:31:13;;;;;;;5.13;4.60;;;16.60;99.90;;;;;;5078859;28;20435;-49
2021/08/29 02:33:39;;;;;;;4.07;3.77;;;16.60;99.90;;;;;;5078906;28;20435;-47
2021/08/29 02:36:07;;;;;;;5.07;4.13;;;16.60;99.90;;;;;;5078418;28;20475;-50
2021/08/29 02:38:35;;;;;;;4.10;3.67;;;16.60;99.90;;;;;;5078767;28;20461;-50
2021/08/29 02:41:04;;;;;;;6.20;4.50;;;16.60;99.90;;;;;;5078387;28;20443;-48
2021/08/29 02:43:33;;;;;;;4.87;4.27;;;16.60;99.90;;;;;;5078833;28;20416;-48
2021/08/29 02:46:01;;;;;;;5.00;3.80;;;16.60;99.90;;;;;;5079476;28;20466;-46
2021/08/29 02:48:30;;;;;;;5.90;4.33;;;16.60;99.90;;;;;;5079488;28;20431;-45
2021/08/29 02:50:58;;;;;;;8.17;4.90;;;16.60;99.90;;;;;;5079178;28;20447;-48
2021/08/29 02:53:26;;;;;;;4.77;4.17;;;16.60;99.90;;;;;;5078795;28;20466;-53
2021/08/29 02:55:57;;;;;;;5.13;4.33;;;16.60;99.90;;;;;;5078249;28;20477;-47
2021/08/29 02:58:25;;;;;;;5.90;4.87;;;16.60;99.90;;;;;;5077783;28;20526;-48
2021/08/29 03:00:52;;;;;;;5.83;4.33;;;16.60;99.90;;;;;;5078395;28;20466;-48
2021/08/29 03:03:19;;;;;;;10.37;5.67;;;16.60;99.90;;;;;;5078442;28;20427;-48
2021/08/29 03:05:46;;;;;;;5.53;4.63;;;16.60;99.90;;;;;;5078665;28;20435;-46
2021/08/29 03:08:13;;;;;;;5.53;3.80;;;16.60;99.90;;;;;;5078541;28;20427;-49
2021/08/29 03:10:42;;;;;;;4.73;4.20;;;16.60;99.90;;;;;;5078133;28;20427;-48
2021/08/29 03:13:10;;;;;;;4.10;3.70;;;16.60;99.90;;;;;;5076936;28;20900;-45
2021/08/29 03:15:36;;;;;;;5.80;4.70;;;16.60;99.90;;;;;;5078100;28;20509;-42
2021/08/29 03:18:03;;;;;;;4.80;4.40;;;16.60;99.90;;;;;;5078440;28;20447;-50
2021/08/29 03:20:30;;;;;;;5.00;3.73;;;16.60;99.90;;;;;;5077666;28;20473;-51
2021/08/29 03:22:58;;;;;;;4.80;4.03;;;16.60;99.90;;;;;;5078060;28;20447;-44
2021/08/29 03:25:25;;;;;;;4.63;3.47;;;16.60;99.90;;;;;;5078000;28;20431;-50
2021/08/29 03:27:54;;;;;;;3.33;3.03;;;16.50;99.90;;;;;;5078140;28;20440;-44
2021/08/29 03:30:20;;;;;;;4.20;2.57;;;16.50;99.90;;;;;;5078685;28;20443;-42
2021/08/29 03:32:47;;;;;;;3.47;2.60;;;16.50;99.90;;;;;;5077685;28;20431;-49
2021/08/29 03:35:15;;;;;;;2.47;2.20;;;16.40;99.90;;;;;;5077633;28;20459;-50
2021/08/29 03:37:42;;;;;;;3.83;3.20;;;16.40;99.90;;;;;;5077442;28;20443;-48
2021/08/29 03:40:09;;;;;;;4.73;3.03;;;16.40;99.90;;;;;;5077605;28;20625;-49
2021/08/29 03:42:36;;;;;;;3.73;3.30;;;16.40;99.90;;;;;;5077449;28;20446;-48
2021/08/29 03:45:07;;;;;;;3.40;3.10;;;16.40;99.90;;;;;;5077529;28;20454;-48
2021/08/29 03:47:34;;;;;;;6.90;3.40;;;16.40;99.90;;;;;;5077894;28;20454;-50
2021/08/29 03:50:02;;;;;;;4.23;2.90;;;16.40;99.90;;;;;;5077716;28;20427;-50
2021/08/29 03:52:29;;;;;;;3.60;2.73;;;16.40;99.90;;;;;;5077396;28;20470;-50
2021/08/29 03:54:55;;;;;;;3.70;3.37;;;16.40;99.90;;;;;;5077384;28;20439;-49
2021/08/29 03:57:23;;;;;;;2.93;2.60;;;16.40;99.90;;;;;;5077974;28;20450;-47
2021/08/29 03:59:50;;;;;;;2.97;2.33;;;16.40;99.90;;;;;;5077962;28;20443;-44
2021/08/29 04:02:19;;;;;;;6.10;3.10;;;16.30;99.90;;;;;;5077730;28;20459;-49
2021/08/29 04:04:52;;;;;;;3.07;2.53;;;16.30;99.90;;;;;;5077495;28;20423;-49
2021/08/29 04:07:19;;;;;;;4.80;2.87;;;16.30;99.90;;;;;;5077384;28;20424;-50
2021/08/29 04:09:47;;;;;;;3.70;3.13;;;16.30;99.90;;;;;;5077654;28;20427;-50
2021/08/29 04:12:15;;;;;;;3.87;3.10;;;16.30;99.90;;;;;;5077398;28;20463;-50
2021/08/29 04:14:42;;;;;;;6.03;3.53;;;16.30;99.90;;;;;;5077947;28;20485;-56
2021/08/29 04:17:10;;;;;;;4.30;3.43;;;16.40;99.90;;;;;;5078320;28;20703;-42
2021/08/29 04:19:41;;;;;;;3.57;2.90;;;16.40;99.90;;;;;;5078387;28;20424;-42
2021/08/29 04:22:09;;;;;;;3.77;3.27;;;16.40;99.90;;;;;;5078455;28;20407;-45
2021/08/29 04:24:36;;;;;;;2.80;2.50;;;16.40;99.90;;;;;;5078547;28;20431;-43
2021/08/29 04:27:04;;;;;;;3.10;2.70;;;16.30;99.90;;;;;;5081916;28;20435;-47
2021/08/29 04:29:31;;;;;;;3.13;2.57;;;16.30;99.90;;;;;;5081642;28;20467;-45
2021/08/29 04:31:58;;;;;;;5.83;3.17;;;16.30;99.90;;;;;;5081932;28;20419;-47
2021/08/29 04:34:27;;;;;;;4.00;3.07;;;16.30;99.90;;;;;;5082189;28;20431;-44
2021/08/29 04:36:55;;;;;;;5.23;3.00;;;16.30;99.90;;;;;;5082019;28;20524;-46
2021/08/29 04:39:22;;;;;;;5.00;3.30;;;16.30;99.90;;;;;;5082030;28;20419;-44
2021/08/29 04:41:48;;;;;;;3.70;2.50;;;16.30;99.90;;;;;;5081548;28;20493;-45
2021/08/29 04:44:15;;;;;;;3.00;2.70;;;16.30;99.90;;;;;;5081423;28;20450;-49
2021/08/29 04:46:42;;;;;;;2.70;2.37;;;16.30;99.90;;;;;;5080994;28;20496;-49
2021/08/29 04:49:08;;;;;;;2.80;2.50;;;16.30;99.90;;;;;;5081571;28;20443;-49
2021/08/29 04:51:36;;;;;;;3.63;3.07;;;16.30;99.90;;;;;;5081456;28;20435;-48
2021/08/29 04:54:04;;;;;;;5.13;2.97;;;16.30;99.90;;;;;;5081406;28;20432;-49
2021/08/29 04:56:34;;;;;;;5.20;3.07;;;16.30;99.90;;;;;;5081723;28;20459;-46
2021/08/29 04:59:02;;;;;;;3.03;2.67;;;16.30;99.90;;;;;;5081332;28;20415;-46
2021/08/29 05:01:31;;;;;;;2.80;2.20;;;16.30;99.90;;;;;;5081123;28;20444;-49
2021/08/29 05:03:57;;;;;;;3.37;2.73;;;16.30;99.90;;;;;;5080959;28;20424;-43
2021/08/29 05:06:24;;;;;;;3.60;2.87;;;16.30;99.90;;;;;;5081160;28;20463;-48
2021/08/29 05:08:51;;;;;;;4.57;3.70;;;16.30;99.90;;;;;;5080329;28;20423;-49
2021/08/29 05:11:19;;;;;;;5.77;5.17;;;16.30;99.90;;;;;;5080646;28;20431;-49
2021/08/29 05:13:45;;;;;;;7.87;6.77;;;16.30;99.90;;;;;;5080457;28;20419;-50
2021/08/29 05:16:12;;;;;;;8.40;7.47;;;16.30;99.90;;;;;;5079839;28;20528;-50
2021/08/29 05:18:39;;;;;;;11.83;9.37;;;16.30;99.90;;;;;;5080315;28;20593;-48
2021/08/29 05:21:05;;;;;;;15.20;11.60;;;16.30;99.90;;;;;;5080052;28;20790;-50
2021/08/29 05:23:32;;;;;;;13.80;10.27;;;16.30;99.90;;;;;;5080121;28;20436;-50
2021/08/29 05:25:59;;;;;;;10.00;6.77;;;16.40;99.90;;;;;;5080020;28;20435;-48
2021/08/29 05:28:27;;;;;;;10.20;6.93;;;16.40;99.90;;;;;;5079166;28;20486;-50
2021/08/29 05:30:54;;;;;;;8.80;6.90;;;16.40;99.90;;;;;;5079489;28;20439;-43
2021/08/29 05:33:21;;;;;;;11.10;7.00;;;16.30;99.90;;;;;;5080060;28;20450;-50
2021/08/29 05:35:47;;;;;;;9.90;7.63;;;16.30;99.90;;;;;;5079778;28;20493;-50
2021/08/29 05:38:14;;;;;;;12.23;9.17;;;16.30;99.90;;;;;;5079995;28;20460;-50
2021/08/29 05:40:40;;;;;;;8.73;6.77;;;16.30;99.90;;;;;;5079849;28;20423;-50
2021/08/29 05:43:07;;;;;;;8.20;6.63;;;16.40;99.90;;;;;;5079953;28;20448;-50
2021/08/29 05:45:35;;;;;;;9.50;6.90;;;16.40;99.90;;;;;;5079918;28;20431;-50
2021/08/29 05:48:02;;;;;;;8.63;6.20;;;16.40;99.90;;;;;;5079567;28;20462;-50
2021/08/29 05:50:29;;;;;;;7.10;6.03;;;16.40;99.90;;;;;;5079706;28;20457;-50
2021/08/29 05:52:55;;;;;;;10.93;8.63;;;16.40;99.90;;;;;;5079576;28;20449;-48
2021/08/29 05:55:22;;;;;;;9.90;7.37;;;16.40;99.90;;;;;;5079528;28;20439;-49
2021/08/29 05:57:49;;;;;;;11.20;7.90;;;16.40;99.90;;;;;;5079368;28;20431;-49
2021/08/29 06:00:16;;;;;;;9.30;6.73;;;16.40;99.90;;;;;;5079652;28;20454;-51
2021/08/29 06:02:44;;;;;;;13.53;9.27;;;16.40;99.90;;;;;;5078942;28;20470;-48
2021/08/29 06:05:11;;;;;;;13.97;8.70;;;16.40;99.90;;;;;;5079484;28;20431;-50
2021/08/29 06:07:37;;;;;;;14.50;8.37;;;16.40;99.90;;;;;;5080020;28;20427;-43
2021/08/29 06:10:05;;;;;;;12.67;8.37;;;16.40;99.90;;;;;;5080381;28;20436;-42
2021/08/29 06:12:32;;;;;;;7.83;7.03;;;16.40;99.90;;;;;;5080313;28;20424;-45
2021/08/29 06:14:58;;;;;;;8.70;6.83;;;16.40;99.90;;;;;;5080044;28;20450;-42
2021/08/29 06:17:25;;;;;;;10.80;6.50;;;16.40;99.90;;;;;;5080106;28;20471;-42
2021/08/29 06:25:04;;;;;;;8.67;5.50;;;16.40;99.90;;;;;;5509240;22;20449;-45
2021/08/29 06:27:31;;;;;;;7.23;5.80;;;16.40;99.90;;;;;;5039829;28;20433;-44
2021/08/29 06:29:58;;;;;;;7.27;5.27;;;16.40;99.90;;;;;;5040072;28;20453;-41
2021/08/29 06:32:24;;;;;;;7.33;5.30;;;16.40;99.90;;;;;;5039288;28;20446;-41
2021/08/29 06:34:51;;;;;;;7.30;5.50;;;16.40;99.90;;;;;;5038883;28;20433;-44
2021/08/29 06:37:18;;;;;;;7.00;5.77;;;16.40;99.90;;;;;;5038558;28;20495;-41
2021/08/29 06:39:44;;;;;;;6.37;4.70;;;16.40;99.90;;;;;;5038616;28;20445;-41
2021/08/29 06:42:14;;;;;;;6.70;5.40;;;16.40;99.90;;;;;;5038610;28;20456;-47
2021/08/29 06:44:41;;;;;;;6.33;5.20;;;16.40;99.90;;;;;;5038667;28;20440;-47
2021/08/29 06:47:08;;;;;;;9.93;6.23;;;16.50;99.90;;;;;;5038370;28;20437;-42
2021/08/29 06:49:35;;;;;;;7.03;5.60;;;16.40;99.90;;;;;;5038371;28;20425;-43
2021/08/29 06:52:05;;;;;;;6.63;4.40;;;16.40;99.90;;;;;;5038423;28;20437;-53
2021/08/29 06:54:31;;;;;;;6.53;5.13;;;16.50;99.90;;;;;;5038595;28;20476;-46
2021/08/29 06:56:58;;;;;;;5.73;4.70;;;16.50;99.90;;;;;;5038910;28;20469;-44
2021/08/29 06:59:26;;;;;;;5.93;4.97;;;16.50;99.90;;;;;;5039010;28;20476;-50
2021/08/29 07:01:53;;;;;;;6.20;4.80;;;16.50;99.90;;;;;;5038227;28;20438;-41
2021/08/29 07:04:20;;;;;;;4.87;4.00;;;16.50;99.90;;;;;;5038332;28;20429;-42
2021/08/29 07:06:46;;;;;;;5.73;4.93;;;16.40;99.90;;;;;;5038593;28;20429;-41
2021/08/29 07:09:13;;;;;;;7.40;4.00;;;16.40;99.90;;;;;;5038779;28;20441;-42
2021/08/29 07:11:40;;;;;;;5.90;4.23;;;16.40;99.90;;;;;;5038502;28;20425;-44
2021/08/29 07:14:07;;;;;;;5.47;4.10;;;16.50;99.90;;;;;;5038044;28;20460;-46
2021/08/29 07:16:36;;;;;;;6.57;4.27;;;16.40;99.90;;;;;;5038343;28;20487;-50
2021/08/29 07:19:03;;;;;;;5.13;3.87;;;16.50;99.90;;;;;;5038607;28;20422;-51
2021/08/29 07:21:31;;;;;;;4.93;3.70;;;16.50;99.90;;;;;;5038141;28;20441;-43
2021/08/29 07:23:58;;;;;;;4.97;3.67;;;16.60;99.90;;;;;;5037863;28;20433;-45
2021/08/29 07:26:25;;;;;;;4.60;3.70;;;16.60;99.90;;;;;;5038199;28;20448;-46
2021/08/29 07:28:52;;;;;;;4.77;3.00;;;16.70;99.90;;;;;;5038116;28;20452;-44
2021/08/29 07:31:19;;;;;;;5.53;4.43;;;16.60;99.90;;;;;;5037832;28;20472;-49
2021/08/29 07:33:49;;;;;;;5.80;4.43;;;16.70;99.90;;;;;;5037295;28;20453;-45
2021/08/29 07:36:15;;;;;;;4.60;3.43;;;16.70;99.90;;;;;;5037831;28;20496;-45
2021/08/29 07:38:42;;;;;;;4.10;3.37;;;16.70;99.90;;;;;;5037880;28;20503;-46
2021/08/29 07:41:09;;;;;;;4.70;3.77;;;16.70;99.90;;;;;;5037918;28;20460;-42
2021/08/29 07:43:35;;;;;;;4.10;3.50;;;16.60;99.90;;;;;;5037943;28;20464;-47
2021/08/29 07:46:02;;;;;;;4.40;3.30;;;16.60;99.90;;;;;;5037600;28;20421;-46
2021/08/29 07:48:29;;;;;;;4.87;3.60;;;16.60;99.90;;;;;;5037740;28;20468;-47
2021/08/29 07:51:01;;;;;;;4.20;3.20;;;16.60;99.90;;;;;;5037870;28;20445;-47
2021/08/29 07:53:28;;;;;;;4.70;3.40;;;16.50;99.90;;;;;;5037761;28;20425;-50
2021/08/29 07:55:55;;;;;;;3.47;2.87;;;16.50;99.90;;;;;;5037787;28;20441;-47
2021/08/29 07:58:22;;;;;;;4.10;3.30;;;16.50;99.90;;;;;;5037198;28;20484;-46
2021/08/29 08:00:49;;;;;;;5.20;4.00;;;16.50;99.90;;;;;;5041464;28;20456;-45
2021/08/29 08:03:15;;;;;;;9.00;3.90;;;16.50;99.90;;;;;;5041823;28;20433;-44
2021/08/29 08:05:42;;;;;;;4.57;3.67;;;16.60;99.90;;;;;;5042172;28;20441;-43
2021/08/29 08:08:10;;;;;;;4.97;4.00;;;16.60;99.90;;;;;;5041597;28;20471;-49
2021/08/29 08:10:39;;;;;;;4.33;3.73;;;16.60;99.90;;;;;;5041545;28;20464;-49
2021/08/29 08:13:05;;;;;;;4.57;3.40;;;16.60;99.90;;;;;;5041556;28;20433;-50
2021/08/29 08:15:32;;;;;;;3.53;3.20;;;16.60;99.90;;;;;;5041744;28;20468;-50
2021/08/29 08:17:59;;;;;;;4.83;3.47;;;16.60;99.90;;;;;;5041753;28;20492;-45
2021/08/29 08:20:25;;;;;;;4.00;2.97;;;16.80;99.90;;;;;;5041867;28;20441;-50
2021/08/29 08:22:54;;;;;;;4.60;3.40;;;16.80;99.90;;;;;;5041444;28;20437;-44
2021/08/29 08:25:22;;;;;;;6.40;4.70;;;16.80;99.90;;;;;;5041326;28;20480;-46
2021/08/29 08:27:49;;;;;;;3.73;3.33;;;16.90;99.90;;;;;;5041262;28;20433;-48
2021/08/29 08:30:16;;;;;;;4.60;3.00;;;17.00;99.90;;;;;;5041248;28;20474;-48
2021/08/29 08:32:42;;;;;;;4.77;2.77;;;17.10;99.90;;;;;;5041080;28;20422;-49
2021/08/29 08:35:10;;;;;;;4.87;3.40;;;17.20;99.90;;;;;;5041339;28;20481;-49
2021/08/29 08:37:37;;;;;;;5.50;3.83;;;17.30;99.90;;;;;;5040832;28;20487;-47
2021/08/29 08:40:07;;;;;;;3.60;3.10;;;17.30;99.90;;;;;;5040733;28;20424;-47
2021/08/29 08:42:36;;;;;;;3.73;3.10;;;17.40;99.90;;;;;;5041240;28;20440;-49
2021/08/29 08:45:07;;;;;;;4.03;3.50;;;17.40;99.90;;;;;;5040550;28;20424;-49
2021/08/29 08:47:39;;;;;;;4.07;3.00;;;17.50;99.90;;;;;;5041004;28;20425;-47
2021/08/29 08:50:09;;;;;;;4.20;3.07;;;17.60;99.90;;;;;;5040824;28;20417;-49
2021/08/29 08:52:37;;;;;;;3.30;2.80;;;17.70;99.90;;;;;;5040765;28;20428;-50
2021/08/29 08:55:05;;;;;;;3.97;3.10;;;17.70;99.90;;;;;;5040276;28;20549;-49
2021/08/29 08:57:35;;;;;;;3.53;2.53;;;17.80;99.90;;;;;;5040287;28;20480;-46
2021/08/29 09:00:04;;;;;;;3.03;2.53;;;17.80;99.90;;;;;;5040798;28;20422;-47
2021/08/29 09:02:30;;;;;;;4.10;2.73;;;17.90;99.90;;;;;;5040209;28;20817;-49
2021/08/29 09:04:59;;;;;;;4.40;2.40;;;17.90;99.90;;;;;;5040384;28;20460;-43
2021/08/29 09:07:29;;;;;;;5.20;2.53;;;17.90;99.90;;;;;;5040527;28;20448;-48
2021/08/29 09:09:59;;;;;;;3.40;2.93;;;17.90;99.90;;;;;;5040422;28;20441;-43
2021/08/29 09:12:27;;;;;;;3.77;2.87;;;18.00;99.90;;;;;;5039636;28;20456;-42
2021/08/29 09:14:57;;;;;;;2.43;2.10;;;18.20;99.90;;;;;;5040011;28;20511;-45
2021/08/29 09:17:29;;;;;;;3.30;2.33;;;18.70;99.90;;;;;;5040089;28;20508;-45
2021/08/29 09:20:15;;;;;;;3.57;2.73;;;19.00;99.90;;;;;;5039746;28;20416;-45
2021/08/29 09:22:42;;;;;;;6.03;5.30;;;19.10;99.90;;;;;;5040054;28;20477;-47
2021/08/29 09:25:14;;;;;;;5.30;3.47;;;19.20;99.90;;;;;;5039693;28;20477;-50
2021/08/29 09:27:45;;;;;;;3.77;2.70;;;19.20;99.90;;;;;;5040037;28;20468;-47
2021/08/29 09:30:13;;;;;;;2.70;2.10;;;19.20;99.90;;;;;;5039662;28;20441;-45
2021/08/29 09:32:53;;;;;;;2.90;2.43;;;19.20;99.90;;;;;;5039861;28;20448;-47
2021/08/29 09:35:22;;;;;;;3.03;2.30;;;19.10;99.90;;;;;;5039745;28;20421;-46
2021/08/29 09:37:48;;;;;;;3.70;2.17;;;19.20;99.90;;;;;;5039737;28;20462;-43
2021/08/29 09:40:18;;;;;;;5.60;3.37;;;19.20;99.90;;;;;;5039741;28;20434;-46
2021/08/29 09:42:46;;;;;;;3.53;2.80;;;19.30;99.90;;;;;;5039376;28;20425;-50
2021/08/29 09:45:21;;;;;;;2.40;2.20;;;19.40;99.90;;;;;;5039130;28;20437;-49
2021/08/29 09:47:49;;;;;;;2.63;2.30;;;19.50;99.90;;;;;;5039209;28;20475;-49
2021/08/29 09:50:19;;;;;;;6.33;4.30;;;19.40;99.90;;;;;;5039690;28;20437;-48
2021/08/29 09:52:46;;;;;;;40.13;23.63;;;19.50;99.90;;;;;;5039713;28;20428;-48
2021/08/29 09:55:13;;;;;;;2.57;2.03;;;19.40;99.90;;;;;;5039951;28;20437;-49
2021/08/29 09:57:40;;;;;;;7.73;6.60;;;19.50;99.90;;;;;;5039736;28;20468;-50
2021/08/29 10:00:09;;;;;;;2.97;1.90;;;19.70;99.90;;;;;;5039328;28;20429;-43
2021/08/29 10:02:36;;;;;;;5.33;3.87;;;20.00;99.90;;;;;;5038796;28;20468;-49
2021/08/29 10:05:15;;;;;;;2.00;1.60;;;20.20;99.90;;;;;;5039548;28;20476;-46
2021/08/29 10:08:04;;;;;;;4.13;2.20;;;20.30;99.90;;;;;;5039058;28;20452;-49
2021/08/29 10:10:31;;;;;;;2.13;1.93;;;20.20;99.90;;;;;;5039016;28;20433;-48
2021/08/29 10:13:00;;;;;;;2.47;2.17;;;20.10;99.90;;;;;;5039016;28;20480;-48
2021/08/29 10:15:27;;;;;;;2.03;1.73;;;20.20;99.90;;;;;;5039049;28;20453;-49
2021/08/29 10:17:58;;;;;;;2.50;1.87;;;20.20;99.90;;;;;;5038831;28;20485;-50
2021/08/29 10:20:34;;;;;;;2.50;1.80;;;20.40;99.90;;;;;;5038704;28;20438;-45
2021/08/29 10:23:01;;;;;;;1.40;1.20;;;20.50;99.90;;;;;;5038187;28;20428;-50
2021/08/29 10:25:36;;;;;;;3.37;1.87;;;20.70;99.90;;;;;;5038464;28;20461;-51
2021/08/29 10:28:07;;;;;;;2.63;2.07;;;20.90;99.90;;;;;;5038434;28;20444;-47
2021/08/29 10:30:37;;;;;;;1.87;1.50;;;21.00;99.90;;;;;;5038463;28;20464;-48
2021/08/29 10:33:05;;;;;;;1.60;1.40;;;21.00;99.90;;;;;;5038596;28;20433;-49
2021/08/29 10:35:34;;;;;;;2.03;1.60;;;20.80;99.90;;;;;;5038375;28;20511;-49
2021/08/29 10:38:01;;;;;;;2.40;1.87;;;20.70;99.90;;;;;;5038512;28;20511;-49
2021/08/29 10:40:29;;;;;;;1.80;1.30;;;20.50;99.90;;;;;;5038515;28;20437;-50
2021/08/29 10:42:58;;;;;;;1.77;1.50;;;20.60;99.90;;;;;;5038536;28;20456;-50
2021/08/29 10:45:25;;;;;;;1.67;1.40;;;21.30;99.90;;;;;;5038536;28;20469;-50
2021/08/29 10:47:55;;;;;;;1.40;1.10;;;22.00;99.90;;;;;;5038087;28;20429;-50
2021/08/29 10:50:23;;;;;;;1.90;1.63;;;22.40;99.90;;;;;;5038366;28;20476;-50
2021/08/29 10:52:51;;;;;;;2.00;1.30;;;23.00;99.90;;;;;;5038171;28;20472;-49
2021/08/29 10:55:19;;;;;;;1.37;1.27;;;23.30;99.90;;;;;;5037703;28;20449;-50
2021/08/29 10:57:47;;;;;;;3.63;1.97;;;23.60;99.90;;;;;;5037916;28;20469;-50
2021/08/29 11:00:17;;;;;;;1.53;1.20;;;23.80;99.90;;;;;;5037509;28;20441;-42
2021/08/29 11:02:46;;;;;;;1.30;1.20;;;24.00;99.90;;;;;;5038590;28;20464;-47
2021/08/29 11:05:16;;;;;;;1.30;1.00;;;24.00;99.90;;;;;;5038339;28;20513;-48
2021/08/29 11:07:52;;;;;;;2.00;1.40;;;23.70;99.90;;;;;;5038887;28;20488;-51
2021/08/29 11:10:43;;;;;;;2.90;1.50;;;23.60;99.90;;;;;;5039147;28;20468;-46
2021/08/29 11:13:41;;;;;;;1.33;1.10;;;23.40;99.90;;;;;;5039027;28;20501;-44
2021/08/29 11:16:22;;;;;;;1.30;1.07;;;23.60;99.90;;;;;;5039256;28;20425;-45
2021/08/29 11:19:11;;;;;;;1.53;1.40;;;23.80;99.90;;;;;;5038930;28;20453;-48
2021/08/29 11:22:21;;;;;;;1.73;1.27;;;23.80;99.90;;;;;;5038571;28;20457;-46
2021/08/29 11:24:58;;;;;;;2.10;1.30;;;23.50;99.90;;;;;;5038508;28;20480;-47
2021/08/29 11:27:45;;;;;;;2.63;1.83;;;23.60;99.90;;;;;;5038403;28;20422;-44
2021/08/29 11:30:15;;;;;;;3.10;1.60;;;23.60;99.90;;;;;;5038651;28;20457;-44
2021/08/29 11:32:45;;;;;;;3.30;2.80;;;23.40;99.90;;;;;;5038476;28;20440;-48
2021/08/29 11:35:14;;;;;;;3.53;3.20;;;23.20;99.90;;;;;;5037922;28;20425;-47
2021/08/29 11:37:41;;;;;;;1.70;1.30;;;23.10;99.90;;;;;;5037914;28;20504;-48
2021/08/29 11:40:12;;;;;;;1.93;1.60;;;23.00;99.90;;;;;;5038297;28;20448;-45
2021/08/29 11:42:40;;;;;;;1.70;1.30;;;22.90;99.90;;;;;;5038661;28;20414;-43
2021/08/29 11:45:12;;;;;;;1.97;1.50;;;22.80;99.90;;;;;;5038665;28;20793;-46
2021/08/29 11:47:41;;;;;;;1.50;1.40;;;22.60;99.90;;;;;;5037881;28;20425;-47
2021/08/29 11:50:10;;;;;;;1.83;1.50;;;22.60;99.90;;;;;;5037856;28;20445;-47
2021/08/29 11:52:38;;;;;;;3.20;1.70;;;22.80;99.90;;;;;;5037991;28;20467;-48
2021/08/29 11:55:11;;;;;;;2.50;1.37;;;22.90;99.90;;;;;;5038551;28;20433;-47
2021/08/29 11:57:48;;;;;;;5.77;1.40;;;23.20;99.90;;;;;;5038665;28;20480;-46
2021/08/29 12:00:17;;;;;;;1.60;1.50;;;23.30;99.90;;;;;;5037577;28;20459;-47
2021/08/29 12:02:48;;;;;;;2.07;1.50;;;23.20;99.90;;;;;;5037907;28;20456;-48
2021/08/29 12:05:18;;;;;;;1.97;1.27;;;23.30;99.90;;;;;;5037574;28;20429;-48
2021/08/29 12:07:48;;;;;;;1.90;1.40;;;23.20;99.90;;;;;;5037213;28;20437;-49
2021/08/29 12:10:17;;;;;;;2.07;1.30;;;23.10;99.90;;;;;;5038177;28;20441;-48
2021/08/29 12:12:46;;;;;;;1.50;1.30;;;23.00;99.90;;;;;;5038077;28;20469;-47
2021/08/29 12:15:15;;;;;;;3.30;1.50;;;22.80;99.90;;;;;;5037617;28;20437;-45
2021/08/29 12:17:43;;;;;;;1.83;1.40;;;22.50;99.90;;;;;;5037498;28;20473;-50
2021/08/29 12:20:11;;;;;;;3.63;2.90;;;22.30;99.90;;;;;;5037825;28;20448;-50
2021/08/29 12:22:40;;;;;;;3.83;2.17;;;22.10;99.90;;;;;;5037333;28;20445;-47
2021/08/29 12:25:08;;;;;;;2.50;1.77;;;21.90;99.90;;;;;;5037220;28;20461;-48
2021/08/29 12:27:36;;;;;;;1.93;1.60;;;21.70;99.90;;;;;;5037198;28;20444;-45
2021/08/29 12:30:05;;;;;;;1.80;1.47;;;21.60;99.90;;;;;;5037217;28;20445;-49
2021/08/29 12:32:34;;;;;;;1.50;1.20;;;21.40;99.90;;;;;;5037143;28;20457;-50
2021/08/29 12:35:03;;;;;;;2.83;1.40;;;21.40;99.90;;;;;;5037349;28;20476;-49
2021/08/29 12:37:31;;;;;;;1.37;1.10;;;21.30;99.90;;;;;;5037184;28;20445;-49
2021/08/29 12:40:00;;;;;;;1.90;1.63;;;21.20;99.90;;;;;;5037094;28;20432;-49
2021/08/29 12:42:29;;;;;;;2.07;1.27;;;21.20;99.90;;;;;;5037206;28;20780;-48
2021/08/29 12:44:58;;;;;;;1.60;1.50;;;21.20;99.90;;;;;;5037227;28;20425;-45
2021/08/29 12:47:29;;;;;;;1.60;1.20;;;21.30;99.90;;;;;;5039252;28;20588;-49
2021/08/29 12:49:56;;;;;;;1.23;1.00;;;21.30;99.90;;;;;;5040372;28;20425;-46
2021/08/29 12:52:25;;;;;;;1.20;1.00;;;21.20;99.90;;;;;;5040407;28;20459;-47
2021/08/29 12:54:53;;;;;;;2.13;1.80;;;21.10;99.90;;;;;;5040361;28;20452;-48
2021/08/29 12:57:24;;;;;;;1.40;1.20;;;21.10;99.90;;;;;;5040212;28;20441;-47
2021/08/29 12:59:52;;;;;;;1.83;1.40;;;21.20;99.90;;;;;;5040400;28;20499;-45